sensor_id;sensor_type;location;lat;lon;timestamp;P1;durP1;ratioP1;P2;durP2;ratioP2
54157;SDS011;40065;49.894;10.358;2023-11-18T00:03:38;10.10;;;6.32;;
54157;SDS011;40065;49.894;10.358;2023-11-18T00:08:41;9.65;;;5.82;;
54157;SDS011;40065;49.894;10.358;2023-11-18T00:13:42;10.50;;;6.40;;
54157;SDS011;40065;49.894;10.358;2023-11-18T00:18:44;12.13;;;7.55;;
54157;SDS011;40065;49.894;10.358;2023-11-18T00:23:46;12.55;;;6.78;;
54157;SDS011;40065;49.894;10.358;2023-11-18T00:28:49;13.15;;;5.20;;
54157;SDS011;40065;49.894;10.358;2023-11-18T00:33:51;6.35;;;3.50;;
54157;SDS011;40065;49.894;10.358;2023-11-18T00:38:53;8.68;;;4.00;;
54157;SDS011;40065;49.894;10.358;2023-11-18T00:43:55;6.88;;;3.95;;
54157;SDS011;40065;49.894;10.358;2023-11-18T00:48:58;7.85;;;4.97;;
54157;SDS011;40065;49.894;10.358;2023-11-18T00:54:01;8.23;;;4.97;;
54157;SDS011;40065;49.894;10.358;2023-11-18T00:59:06;7.78;;;5.20;;
54157;SDS011;40065;49.894;10.358;2023-11-18T01:04:08;9.07;;;5.38;;
54157;SDS011;40065;49.894;10.358;2023-11-18T01:09:11;8.10;;;4.47;;
54157;SDS011;40065;49.894;10.358;2023-11-18T01:14:13;10.77;;;4.65;;
54157;SDS011;40065;49.894;10.358;2023-11-18T01:19:16;10.88;;;4.90;;
54157;SDS011;40065;49.894;10.358;2023-11-18T01:24:19;8.52;;;4.60;;
54157;SDS011;40065;49.894;10.358;2023-11-18T01:29:21;9.27;;;4.65;;
54157;SDS011;40065;49.894;10.358;2023-11-18T01:34:23;7.65;;;4.65;;
54157;SDS011;40065;49.894;10.358;2023-11-18T01:39:25;6.93;;;4.43;;
54157;SDS011;40065;49.894;10.358;2023-11-18T01:44:28;9.32;;;4.75;;
54157;SDS011;40065;49.894;10.358;2023-11-18T01:49:31;8.48;;;4.32;;
54157;SDS011;40065;49.894;10.358;2023-11-18T01:54:38;7.30;;;4.07;;
54157;SDS011;40065;49.894;10.358;2023-11-18T01:59:41;7.05;;;3.95;;
54157;SDS011;40065;49.894;10.358;2023-11-18T02:04:43;5.75;;;3.83;;
54157;SDS011;40065;49.894;10.358;2023-11-18T02:09:46;5.53;;;3.65;;
54157;SDS011;40065;49.894;10.358;2023-11-18T02:14:48;6.65;;;3.40;;
54157;SDS011;40065;49.894;10.358;2023-11-18T02:19:55;8.05;;;3.80;;
54157;SDS011;40065;49.894;10.358;2023-11-18T02:25:01;7.18;;;3.60;;
54157;SDS011;40065;49.894;10.358;2023-11-18T02:30:03;5.50;;;3.20;;
54157;SDS011;40065;49.894;10.358;2023-11-18T02:35:13;6.18;;;3.13;;
54157;SDS011;40065;49.894;10.358;2023-11-18T02:40:19;5.47;;;3.50;;
54157;SDS011;40065;49.894;10.358;2023-11-18T02:45:25;5.22;;;3.25;;
54157;SDS011;40065;49.894;10.358;2023-11-18T02:50:28;5.00;;;3.40;;
54157;SDS011;40065;49.894;10.358;2023-11-18T02:55:30;5.05;;;2.75;;
54157;SDS011;40065;49.894;10.358;2023-11-18T03:00:33;6.47;;;3.05;;
54157;SDS011;40065;49.894;10.358;2023-11-18T03:05:35;6.50;;;3.50;;
54157;SDS011;40065;49.894;10.358;2023-11-18T03:10:37;6.47;;;4.00;;
54157;SDS011;40065;49.894;10.358;2023-11-18T03:15:41;6.40;;;4.00;;
54157;SDS011;40065;49.894;10.358;2023-11-18T03:20:44;6.47;;;4.22;;
54157;SDS011;40065;49.894;10.358;2023-11-18T03:25:46;6.18;;;3.90;;
54157;SDS011;40065;49.894;10.358;2023-11-18T03:30:48;7.45;;;4.30;;
54157;SDS011;40065;49.894;10.358;2023-11-18T03:35:50;7.35;;;4.32;;
54157;SDS011;40065;49.894;10.358;2023-11-18T03:40:51;8.50;;;5.18;;
54157;SDS011;40065;49.894;10.358;2023-11-18T03:45:53;9.13;;;5.70;;
54157;SDS011;40065;49.894;10.358;2023-11-18T03:50:58;8.48;;;5.15;;
54157;SDS011;40065;49.894;10.358;2023-11-18T03:56:00;9.88;;;6.03;;
54157;SDS011;40065;49.894;10.358;2023-11-18T04:01:03;7.53;;;4.60;;
54157;SDS011;40065;49.894;10.358;2023-11-18T04:06:06;7.35;;;4.70;;
54157;SDS011;40065;49.894;10.358;2023-11-18T04:11:09;9.25;;;5.78;;
54157;SDS011;40065;49.894;10.358;2023-11-18T04:16:11;11.70;;;6.88;;
54157;SDS011;40065;49.894;10.358;2023-11-18T04:21:14;10.45;;;5.88;;
54157;SDS011;40065;49.894;10.358;2023-11-18T04:26:16;13.13;;;7.32;;
54157;SDS011;40065;49.894;10.358;2023-11-18T04:31:19;12.25;;;7.35;;
54157;SDS011;40065;49.894;10.358;2023-11-18T04:36:22;10.95;;;6.68;;
54157;SDS011;40065;49.894;10.358;2023-11-18T04:41:24;13.38;;;6.05;;
54157;SDS011;40065;49.894;10.358;2023-11-18T04:46:26;9.50;;;5.35;;
54157;SDS011;40065;49.894;10.358;2023-11-18T04:51:28;16.10;;;6.75;;
54157;SDS011;40065;49.894;10.358;2023-11-18T04:56:29;11.35;;;6.00;;
54157;SDS011;40065;49.894;10.358;2023-11-18T05:01:31;11.10;;;6.35;;
54157;SDS011;40065;49.894;10.358;2023-11-18T05:06:33;13.63;;;8.13;;
54157;SDS011;40065;49.894;10.358;2023-11-18T05:11:35;10.85;;;6.35;;
54157;SDS011;40065;49.894;10.358;2023-11-18T05:16:37;14.68;;;7.38;;
54157;SDS011;40065;49.894;10.358;2023-11-18T05:21:40;13.30;;;7.28;;
54157;SDS011;40065;49.894;10.358;2023-11-18T05:26:42;27.00;;;9.93;;
54157;SDS011;40065;49.894;10.358;2023-11-18T05:31:44;19.88;;;9.32;;
54157;SDS011;40065;49.894;10.358;2023-11-18T05:36:47;16.63;;;8.30;;
54157;SDS011;40065;49.894;10.358;2023-11-18T05:41:50;15.65;;;7.82;;
54157;SDS011;40065;49.894;10.358;2023-11-18T05:46:52;13.88;;;7.68;;
54157;SDS011;40065;49.894;10.358;2023-11-18T05:51:54;12.95;;;7.50;;
54157;SDS011;40065;49.894;10.358;2023-11-18T05:56:56;14.80;;;7.25;;
54157;SDS011;40065;49.894;10.358;2023-11-18T06:02:01;9.27;;;5.38;;
54157;SDS011;40065;49.894;10.358;2023-11-18T06:07:05;17.93;;;7.57;;
54157;SDS011;40065;49.894;10.358;2023-11-18T06:12:08;14.18;;;8.07;;
54157;SDS011;40065;49.894;10.358;2023-11-18T06:17:11;12.15;;;6.60;;
54157;SDS011;40065;49.894;10.358;2023-11-18T06:22:14;14.57;;;7.18;;
54157;SDS011;40065;49.894;10.358;2023-11-18T06:27:16;11.13;;;6.22;;
54157;SDS011;40065;49.894;10.358;2023-11-18T06:32:19;10.63;;;5.95;;
54157;SDS011;40065;49.894;10.358;2023-11-18T06:37:21;14.23;;;7.47;;
54157;SDS011;40065;49.894;10.358;2023-11-18T06:42:23;11.52;;;6.47;;
54157;SDS011;40065;49.894;10.358;2023-11-18T06:47:25;11.82;;;6.65;;
54157;SDS011;40065;49.894;10.358;2023-11-18T06:52:27;11.18;;;6.28;;
54157;SDS011;40065;49.894;10.358;2023-11-18T06:57:29;12.65;;;6.53;;
54157;SDS011;40065;49.894;10.358;2023-11-18T07:02:31;11.75;;;6.93;;
54157;SDS011;40065;49.894;10.358;2023-11-18T07:07:33;14.55;;;7.85;;
54157;SDS011;40065;49.894;10.358;2023-11-18T07:12:35;11.82;;;7.50;;
54157;SDS011;40065;49.894;10.358;2023-11-18T07:17:39;11.88;;;6.80;;
54157;SDS011;40065;49.894;10.358;2023-11-18T07:22:42;13.32;;;7.40;;
54157;SDS011;40065;49.894;10.358;2023-11-18T07:27:43;22.27;;;9.52;;
54157;SDS011;40065;49.894;10.358;2023-11-18T07:32:45;43.15;;;13.10;;
54157;SDS011;40065;49.894;10.358;2023-11-18T07:37:47;28.23;;;12.75;;
54157;SDS011;40065;49.894;10.358;2023-11-18T07:42:49;31.50;;;9.65;;
54157;SDS011;40065;49.894;10.358;2023-11-18T07:47:51;33.03;;;10.90;;
54157;SDS011;40065;49.894;10.358;2023-11-18T07:52:55;30.10;;;10.57;;
54157;SDS011;40065;49.894;10.358;2023-11-18T07:57:58;23.27;;;8.55;;
54157;SDS011;40065;49.894;10.358;2023-11-18T08:03:00;14.80;;;8.05;;
54157;SDS011;40065;49.894;10.358;2023-11-18T08:08:02;18.40;;;8.93;;
54157;SDS011;40065;49.894;10.358;2023-11-18T08:13:05;22.13;;;8.90;;
54157;SDS011;40065;49.894;10.358;2023-11-18T08:18:11;20.13;;;9.40;;
54157;SDS011;40065;49.894;10.358;2023-11-18T08:23:13;18.50;;;9.40;;
54157;SDS011;40065;49.894;10.358;2023-11-18T08:28:15;16.58;;;9.02;;
54157;SDS011;40065;49.894;10.358;2023-11-18T08:33:17;19.83;;;10.20;;
54157;SDS011;40065;49.894;10.358;2023-11-18T08:38:20;17.45;;;10.65;;
54157;SDS011;40065;49.894;10.358;2023-11-18T08:43:22;20.27;;;10.07;;
54157;SDS011;40065;49.894;10.358;2023-11-18T08:48:24;18.83;;;10.52;;
54157;SDS011;40065;49.894;10.358;2023-11-18T08:53:26;20.08;;;10.88;;
54157;SDS011;40065;49.894;10.358;2023-11-18T08:58:28;21.23;;;12.77;;
54157;SDS011;40065;49.894;10.358;2023-11-18T09:03:31;21.30;;;13.75;;
54157;SDS011;40065;49.894;10.358;2023-11-18T09:08:37;21.30;;;12.93;;
54157;SDS011;40065;49.894;10.358;2023-11-18T09:13:41;29.17;;;16.42;;
54157;SDS011;40065;49.894;10.358;2023-11-18T09:18:44;25.95;;;15.20;;
54157;SDS011;40065;49.894;10.358;2023-11-18T09:23:46;28.98;;;15.75;;
54157;SDS011;40065;49.894;10.358;2023-11-18T09:33:54;42.25;;;14.60;;
54157;SDS011;40065;49.894;10.358;2023-11-18T09:38:59;30.40;;;15.60;;
54157;SDS011;40065;49.894;10.358;2023-11-18T09:44:01;20.00;;;11.52;;
54157;SDS011;40065;49.894;10.358;2023-11-18T09:54:22;42.17;;;19.73;;
54157;SDS011;40065;49.894;10.358;2023-11-18T09:59:49;23.70;;;12.30;;
54157;SDS011;40065;49.894;10.358;2023-11-18T10:05:00;24.92;;;12.60;;
54157;SDS011;40065;49.894;10.358;2023-11-18T10:10:03;22.80;;;11.77;;
54157;SDS011;40065;49.894;10.358;2023-11-18T10:15:05;21.70;;;12.45;;
54157;SDS011;40065;49.894;10.358;2023-11-18T10:20:12;20.90;;;12.07;;
54157;SDS011;40065;49.894;10.358;2023-11-18T10:25:23;21.33;;;11.43;;
54157;SDS011;40065;49.894;10.358;2023-11-18T10:30:25;27.23;;;12.02;;
54157;SDS011;40065;49.894;10.358;2023-11-18T10:35:27;20.80;;;10.95;;
54157;SDS011;40065;49.894;10.358;2023-11-18T10:40:29;18.48;;;10.52;;
54157;SDS011;40065;49.894;10.358;2023-11-18T10:45:36;18.92;;;10.15;;
54157;SDS011;40065;49.894;10.358;2023-11-18T10:50:45;16.92;;;9.10;;
54157;SDS011;40065;49.894;10.358;2023-11-18T10:55:48;14.88;;;8.60;;
54157;SDS011;40065;49.894;10.358;2023-11-18T11:00:52;13.18;;;8.23;;
54157;SDS011;40065;49.894;10.358;2023-11-18T11:06:06;15.40;;;9.18;;
54157;SDS011;40065;49.894;10.358;2023-11-18T11:11:22;14.77;;;9.20;;
54157;SDS011;40065;49.894;10.358;2023-11-18T11:16:28;11.80;;;7.97;;
54157;SDS011;40065;49.894;10.358;2023-11-18T11:21:47;14.70;;;8.80;;
54157;SDS011;40065;49.894;10.358;2023-11-18T11:27:00;20.55;;;11.60;;
54157;SDS011;40065;49.894;10.358;2023-11-18T11:32:23;23.63;;;13.23;;
54157;SDS011;40065;49.894;10.358;2023-11-18T11:37:31;23.10;;;13.02;;
54157;SDS011;40065;49.894;10.358;2023-11-18T11:42:35;25.55;;;15.05;;
54157;SDS011;40065;49.894;10.358;2023-11-18T11:47:40;25.00;;;13.15;;
54157;SDS011;40065;49.894;10.358;2023-11-18T11:52:48;20.70;;;10.93;;
54157;SDS011;40065;49.894;10.358;2023-11-18T11:58:00;20.65;;;13.20;;
54157;SDS011;40065;49.894;10.358;2023-11-18T12:03:02;23.55;;;13.15;;
54157;SDS011;40065;49.894;10.358;2023-11-18T12:08:07;23.83;;;13.10;;
54157;SDS011;40065;49.894;10.358;2023-11-18T12:13:14;28.10;;;13.95;;
54157;SDS011;40065;49.894;10.358;2023-11-18T12:18:20;23.33;;;13.40;;
54157;SDS011;40065;49.894;10.358;2023-11-18T12:23:23;24.27;;;14.55;;
54157;SDS011;40065;49.894;10.358;2023-11-18T12:28:29;54.80;;;28.10;;
54157;SDS011;40065;49.894;10.358;2023-11-18T12:39:01;21.42;;;13.05;;
54157;SDS011;40065;49.894;10.358;2023-11-18T12:49:23;19.73;;;11.38;;
54157;SDS011;40065;49.894;10.358;2023-11-18T12:54:26;13.88;;;9.50;;
54157;SDS011;40065;49.894;10.358;2023-11-18T12:59:28;16.55;;;9.80;;
54157;SDS011;40065;49.894;10.358;2023-11-18T13:04:32;15.75;;;9.70;;
54157;SDS011;40065;49.894;10.358;2023-11-18T13:09:35;15.60;;;9.27;;
54157;SDS011;40065;49.894;10.358;2023-11-18T13:14:37;14.40;;;8.73;;
54157;SDS011;40065;49.894;10.358;2023-11-18T13:19:40;13.55;;;9.00;;
54157;SDS011;40065;49.894;10.358;2023-11-18T13:24:43;19.08;;;10.82;;
54157;SDS011;40065;49.894;10.358;2023-11-18T13:29:46;21.38;;;12.75;;
54157;SDS011;40065;49.894;10.358;2023-11-18T13:34:52;20.20;;;11.98;;
54157;SDS011;40065;49.894;10.358;2023-11-18T13:39:54;20.33;;;12.73;;
54157;SDS011;40065;49.894;10.358;2023-11-18T13:44:59;20.42;;;13.45;;
54157;SDS011;40065;49.894;10.358;2023-11-18T13:50:09;29.40;;;14.77;;
54157;SDS011;40065;49.894;10.358;2023-11-18T13:55:12;28.45;;;15.15;;
54157;SDS011;40065;49.894;10.358;2023-11-18T14:00:27;27.35;;;15.98;;
54157;SDS011;40065;49.894;10.358;2023-11-18T14:05:33;25.65;;;15.48;;
54157;SDS011;40065;49.894;10.358;2023-11-18T14:10:36;27.20;;;15.02;;
54157;SDS011;40065;49.894;10.358;2023-11-18T14:15:39;30.70;;;16.67;;
54157;SDS011;40065;49.894;10.358;2023-11-18T14:20:43;25.50;;;14.98;;
54157;SDS011;40065;49.894;10.358;2023-11-18T14:25:45;22.58;;;11.88;;
54157;SDS011;40065;49.894;10.358;2023-11-18T14:30:47;17.40;;;10.18;;
54157;SDS011;40065;49.894;10.358;2023-11-18T14:35:49;17.88;;;9.95;;
54157;SDS011;40065;49.894;10.358;2023-11-18T14:40:51;14.30;;;9.10;;
54157;SDS011;40065;49.894;10.358;2023-11-18T14:45:54;17.00;;;9.50;;
54157;SDS011;40065;49.894;10.358;2023-11-18T14:50:56;17.45;;;10.30;;
54157;SDS011;40065;49.894;10.358;2023-11-18T14:55:58;16.77;;;9.30;;
54157;SDS011;40065;49.894;10.358;2023-11-18T15:01:00;17.35;;;9.77;;
54157;SDS011;40065;49.894;10.358;2023-11-18T15:06:02;17.00;;;10.88;;
54157;SDS011;40065;49.894;10.358;2023-11-18T15:11:04;19.60;;;10.50;;
54157;SDS011;40065;49.894;10.358;2023-11-18T15:16:08;17.48;;;10.95;;
54157;SDS011;40065;49.894;10.358;2023-11-18T15:21:10;22.63;;;12.98;;
54157;SDS011;40065;49.894;10.358;2023-11-18T15:26:16;21.67;;;11.77;;
54157;SDS011;40065;49.894;10.358;2023-11-18T15:31:18;21.73;;;12.57;;
54157;SDS011;40065;49.894;10.358;2023-11-18T15:36:20;24.10;;;13.50;;
54157;SDS011;40065;49.894;10.358;2023-11-18T15:41:22;21.17;;;13.50;;
54157;SDS011;40065;49.894;10.358;2023-11-18T15:46:24;23.90;;;14.00;;
54157;SDS011;40065;49.894;10.358;2023-11-18T15:51:25;26.30;;;14.80;;
54157;SDS011;40065;49.894;10.358;2023-11-18T15:56:28;21.42;;;13.27;;
54157;SDS011;40065;49.894;10.358;2023-11-18T16:01:30;21.90;;;13.60;;
54157;SDS011;40065;49.894;10.358;2023-11-18T16:06:33;20.25;;;12.85;;
54157;SDS011;40065;49.894;10.358;2023-11-18T16:11:35;23.45;;;13.15;;
54157;SDS011;40065;49.894;10.358;2023-11-18T16:16:37;21.67;;;12.80;;
54157;SDS011;40065;49.894;10.358;2023-11-18T16:21:39;18.83;;;11.20;;
54157;SDS011;40065;49.894;10.358;2023-11-18T16:26:41;18.63;;;12.35;;
54157;SDS011;40065;49.894;10.358;2023-11-18T16:31:45;19.23;;;12.35;;
54157;SDS011;40065;49.894;10.358;2023-11-18T16:36:48;24.30;;;13.73;;
54157;SDS011;40065;49.894;10.358;2023-11-18T16:41:50;17.90;;;10.15;;
54157;SDS011;40065;49.894;10.358;2023-11-18T16:46:52;20.73;;;10.15;;
54157;SDS011;40065;49.894;10.358;2023-11-18T16:51:54;15.60;;;8.90;;
54157;SDS011;40065;49.894;10.358;2023-11-18T16:57:00;9.43;;;5.82;;
54157;SDS011;40065;49.894;10.358;2023-11-18T17:02:02;13.02;;;6.30;;
54157;SDS011;40065;49.894;10.358;2023-11-18T17:07:07;9.13;;;4.82;;
54157;SDS011;40065;49.894;10.358;2023-11-18T17:12:10;6.60;;;4.43;;
54157;SDS011;40065;49.894;10.358;2023-11-18T17:17:12;6.75;;;3.72;;
54157;SDS011;40065;49.894;10.358;2023-11-18T17:22:14;10.45;;;4.50;;
54157;SDS011;40065;49.894;10.358;2023-11-18T17:27:16;6.68;;;4.65;;
54157;SDS011;40065;49.894;10.358;2023-11-18T17:32:18;8.90;;;3.75;;
54157;SDS011;40065;49.894;10.358;2023-11-18T17:37:20;10.20;;;4.20;;
54157;SDS011;40065;49.894;10.358;2023-11-18T17:42:22;5.22;;;2.67;;
54157;SDS011;40065;49.894;10.358;2023-11-18T17:47:24;5.60;;;2.75;;
54157;SDS011;40065;49.894;10.358;2023-11-18T17:52:28;5.03;;;2.10;;
54157;SDS011;40065;49.894;10.358;2023-11-18T17:57:33;5.13;;;2.30;;
54157;SDS011;40065;49.894;10.358;2023-11-18T18:07:43;4.60;;;2.40;;
54157;SDS011;40065;49.894;10.358;2023-11-18T18:12:45;6.13;;;2.45;;
54157;SDS011;40065;49.894;10.358;2023-11-18T18:17:48;3.70;;;2.20;;
54157;SDS011;40065;49.894;10.358;2023-11-18T18:22:50;3.45;;;2.08;;
54157;SDS011;40065;49.894;10.358;2023-11-18T18:27:52;4.95;;;1.77;;
54157;SDS011;40065;49.894;10.358;2023-11-18T18:32:54;4.28;;;2.00;;
54157;SDS011;40065;49.894;10.358;2023-11-18T18:37:56;4.88;;;2.88;;
54157;SDS011;40065;49.894;10.358;2023-11-18T18:42:58;4.40;;;2.60;;
54157;SDS011;40065;49.894;10.358;2023-11-18T18:48:00;5.57;;;3.00;;
54157;SDS011;40065;49.894;10.358;2023-11-18T18:53:02;4.28;;;3.10;;
54157;SDS011;40065;49.894;10.358;2023-11-18T18:58:04;6.60;;;3.70;;
54157;SDS011;40065;49.894;10.358;2023-11-18T19:03:06;8.38;;;3.70;;
54157;SDS011;40065;49.894;10.358;2023-11-18T19:08:08;6.00;;;2.85;;
54157;SDS011;40065;49.894;10.358;2023-11-18T19:13:11;9.52;;;4.38;;
54157;SDS011;40065;49.894;10.358;2023-11-18T19:18:12;5.07;;;2.55;;
54157;SDS011;40065;49.894;10.358;2023-11-18T19:23:14;4.95;;;2.53;;
54157;SDS011;40065;49.894;10.358;2023-11-18T19:28:17;5.53;;;2.63;;
54157;SDS011;40065;49.894;10.358;2023-11-18T19:33:19;6.15;;;2.75;;
54157;SDS011;40065;49.894;10.358;2023-11-18T19:38:21;7.22;;;2.70;;
54157;SDS011;40065;49.894;10.358;2023-11-18T19:43:24;6.57;;;3.38;;
54157;SDS011;40065;49.894;10.358;2023-11-18T19:48:26;6.05;;;3.45;;
54157;SDS011;40065;49.894;10.358;2023-11-18T19:53:32;5.38;;;3.08;;
54157;SDS011;40065;49.894;10.358;2023-11-18T19:58:33;5.95;;;3.10;;
54157;SDS011;40065;49.894;10.358;2023-11-18T20:03:35;4.90;;;3.35;;
54157;SDS011;40065;49.894;10.358;2023-11-18T20:08:37;5.97;;;3.67;;
54157;SDS011;40065;49.894;10.358;2023-11-18T20:13:39;6.50;;;3.50;;
54157;SDS011;40065;49.894;10.358;2023-11-18T20:18:41;8.07;;;3.97;;
54157;SDS011;40065;49.894;10.358;2023-11-18T20:23:43;5.90;;;3.97;;
54157;SDS011;40065;49.894;10.358;2023-11-18T20:28:45;5.53;;;4.03;;
54157;SDS011;40065;49.894;10.358;2023-11-18T20:33:47;7.70;;;4.13;;
54157;SDS011;40065;49.894;10.358;2023-11-18T20:38:49;6.55;;;4.43;;
54157;SDS011;40065;49.894;10.358;2023-11-18T20:43:51;9.82;;;4.30;;
54157;SDS011;40065;49.894;10.358;2023-11-18T20:48:53;6.18;;;3.75;;
54157;SDS011;40065;49.894;10.358;2023-11-18T20:53:54;6.43;;;4.22;;
54157;SDS011;40065;49.894;10.358;2023-11-18T20:58:56;7.35;;;4.30;;
54157;SDS011;40065;49.894;10.358;2023-11-18T21:04:00;5.45;;;3.90;;
54157;SDS011;40065;49.894;10.358;2023-11-18T21:09:02;8.77;;;4.60;;
54157;SDS011;40065;49.894;10.358;2023-11-18T21:14:04;8.65;;;4.25;;
54157;SDS011;40065;49.894;10.358;2023-11-18T21:19:07;7.00;;;4.28;;
54157;SDS011;40065;49.894;10.358;2023-11-18T21:24:09;7.25;;;4.18;;
54157;SDS011;40065;49.894;10.358;2023-11-18T21:29:11;7.53;;;4.45;;
54157;SDS011;40065;49.894;10.358;2023-11-18T21:34:13;8.23;;;4.45;;
54157;SDS011;40065;49.894;10.358;2023-11-18T21:39:15;8.32;;;5.30;;
54157;SDS011;40065;49.894;10.358;2023-11-18T21:44:19;6.87;;;4.40;;
54157;SDS011;40065;49.894;10.358;2023-11-18T21:49:21;6.32;;;4.50;;
54157;SDS011;40065;49.894;10.358;2023-11-18T21:54:23;8.05;;;5.25;;
54157;SDS011;40065;49.894;10.358;2023-11-18T21:59:31;9.40;;;5.13;;
54157;SDS011;40065;49.894;10.358;2023-11-18T22:04:33;7.85;;;5.20;;
54157;SDS011;40065;49.894;10.358;2023-11-18T22:09:37;9.70;;;5.45;;
54157;SDS011;40065;49.894;10.358;2023-11-18T22:14:39;7.88;;;4.70;;
54157;SDS011;40065;49.894;10.358;2023-11-18T22:19:42;9.68;;;5.00;;
54157;SDS011;40065;49.894;10.358;2023-11-18T22:24:46;7.82;;;4.78;;
54157;SDS011;40065;49.894;10.358;2023-11-18T22:29:48;9.48;;;5.53;;
54157;SDS011;40065;49.894;10.358;2023-11-18T22:34:50;7.10;;;4.60;;
54157;SDS011;40065;49.894;10.358;2023-11-18T22:39:55;11.10;;;4.70;;
54157;SDS011;40065;49.894;10.358;2023-11-18T22:44:58;7.78;;;5.15;;
54157;SDS011;40065;49.894;10.358;2023-11-18T22:50:00;8.20;;;5.30;;
54157;SDS011;40065;49.894;10.358;2023-11-18T22:55:06;9.07;;;5.60;;
54157;SDS011;40065;49.894;10.358;2023-11-18T23:00:16;8.90;;;5.38;;
54157;SDS011;40065;49.894;10.358;2023-11-18T23:05:30;8.55;;;5.80;;
54157;SDS011;40065;49.894;10.358;2023-11-18T23:10:37;9.73;;;5.80;;
54157;SDS011;40065;49.894;10.358;2023-11-18T23:15:40;9.90;;;4.90;;
54157;SDS011;40065;49.894;10.358;2023-11-18T23:20:42;11.07;;;5.85;;
54157;SDS011;40065;49.894;10.358;2023-11-18T23:25:44;9.00;;;6.40;;
54157;SDS011;40065;49.894;10.358;2023-11-18T23:30:46;9.82;;;6.93;;
54157;SDS011;40065;49.894;10.358;2023-11-18T23:35:48;12.48;;;6.88;;
54157;SDS011;40065;49.894;10.358;2023-11-18T23:40:50;9.35;;;6.20;;
54157;SDS011;40065;49.894;10.358;2023-11-18T23:45:52;9.40;;;6.18;;
54157;SDS011;40065;49.894;10.358;2023-11-18T23:50:54;10.23;;;5.90;;
54157;SDS011;40065;49.894;10.358;2023-11-18T23:55:56;9.95;;;6.18;;
